createdAt,value
2022-09-26T00:01:33.929Z,0.95
2022-09-26T00:04:06.692Z,0.90
2022-09-26T00:06:33.477Z,0.77
2022-09-26T00:09:00.262Z,1.48
2022-09-26T00:11:31.548Z,0.80
2022-09-26T00:14:03.141Z,0.90
2022-09-26T00:16:29.925Z,1.00
2022-09-26T00:18:58.984Z,0.93
2022-09-26T00:21:29.614Z,0.93
2022-09-26T00:23:58.301Z,0.85
2022-09-26T00:26:27.833Z,0.77
2022-09-26T00:28:55.922Z,0.93
2022-09-26T00:31:31.176Z,1.00
2022-09-26T00:33:59.518Z,1.10
2022-09-26T00:36:37.522Z,1.00
2022-09-26T00:39:07.732Z,0.70
2022-09-26T00:41:37.542Z,1.35
2022-09-26T00:44:39.961Z,1.35
2022-09-26T00:47:23.408Z,0.90
2022-09-26T00:49:57.996Z,1.20
2022-09-26T00:52:33.613Z,1.98
2022-09-26T00:55:05.889Z,0.90
2022-09-26T00:57:45.291Z,0.80
2022-09-26T01:00:15.109Z,0.73
2022-09-26T01:02:46.886Z,0.82
2022-09-26T01:05:18.575Z,0.77
2022-09-26T01:07:46.684Z,0.68
2022-09-26T01:10:15.295Z,1.17
2022-09-26T01:12:43.456Z,0.77
2022-09-26T01:15:12.014Z,1.48
2022-09-26T01:17:43.476Z,1.25
2022-09-26T01:20:47.001Z,0.82
2022-09-26T01:23:47.071Z,0.93
2022-09-26T01:26:43.461Z,0.90
2022-09-26T01:29:41.198Z,1.08
2022-09-26T01:33:03.985Z,1.10
2022-09-26T01:36:07.997Z,1.00
2022-09-26T01:39:00.977Z,1.30
2022-09-26T01:41:49.371Z,1.10
2022-09-26T01:44:39.789Z,1.23
2022-09-26T01:47:23.561Z,1.20
2022-09-26T01:50:42.861Z,1.35
2022-09-26T01:53:25.498Z,1.27
2022-09-26T01:56:01.101Z,1.42
2022-09-26T01:58:35.593Z,1.40
2022-09-26T02:01:09.649Z,1.00
2022-09-26T02:03:45.548Z,1.27
2022-09-26T02:06:21.227Z,1.23
2022-09-26T02:08:59.776Z,1.20
2022-09-26T02:11:27.064Z,1.20
2022-09-26T02:14:03.773Z,1.20
2022-09-26T02:16:38.040Z,1.30
2022-09-26T02:19:26.673Z,1.40
2022-09-26T02:21:54.796Z,1.33
2022-09-26T02:24:23.448Z,1.50
2022-09-26T02:26:59.591Z,1.48
2022-09-26T02:29:26.481Z,1.60
2022-09-26T02:32:14.596Z,1.20
2022-09-26T02:34:44.920Z,1.70
2022-09-26T02:37:17.421Z,1.70
2022-09-26T02:39:50.240Z,1.20
2022-09-26T02:42:44.365Z,1.60
2022-09-26T02:45:42.041Z,1.20
2022-09-26T02:48:29.048Z,1.33
2022-09-26T02:51:50.080Z,1.40
2022-09-26T02:54:32.180Z,1.30
2022-09-26T02:57:47.468Z,2.33
2022-09-26T03:00:28.496Z,1.58
2022-09-26T03:03:13.232Z,1.58
2022-09-26T03:05:45.891Z,1.25
2022-09-26T03:08:21.429Z,2.00
2022-09-26T03:10:59.674Z,1.58
2022-09-26T03:13:28.260Z,1.40
2022-09-26T03:15:59.520Z,2.33
2022-09-26T03:18:38.609Z,1.50
2022-09-26T03:21:05.501Z,1.70
2022-09-26T03:23:32.717Z,1.67
2022-09-26T03:26:10.036Z,2.28
2022-09-26T03:28:38.048Z,1.90
2022-09-26T03:31:05.622Z,1.73
2022-09-26T03:33:32.344Z,2.13
2022-09-26T03:35:59.952Z,1.40
2022-09-26T03:38:27.433Z,1.80
2022-09-26T03:41:02.615Z,1.58
2022-09-26T03:43:30.267Z,1.65
2022-09-26T03:45:57.699Z,1.75
2022-09-26T03:48:24.477Z,1.48
2022-09-26T03:50:53.353Z,1.67
2022-09-26T03:53:20.172Z,1.77
2022-09-26T03:55:46.896Z,1.75
2022-09-26T03:58:13.643Z,1.73
2022-09-26T04:00:40.386Z,2.00
2022-09-26T04:03:07.339Z,1.77
2022-09-26T04:05:34.524Z,1.63
2022-09-26T04:08:02.966Z,1.70
2022-09-26T04:10:29.665Z,1.55
2022-09-26T04:12:56.939Z,1.92
2022-09-26T04:15:23.722Z,1.55
2022-09-26T04:17:50.669Z,1.60
2022-09-26T04:20:17.365Z,1.80
2022-09-26T04:22:44.387Z,1.85
2022-09-26T04:25:11.141Z,1.42
2022-09-26T04:27:38.000Z,1.63
2022-09-26T04:30:05.882Z,1.67
2022-09-26T04:32:32.656Z,2.00
2022-09-26T04:35:01.616Z,1.90
2022-09-26T04:37:28.511Z,1.92
2022-09-26T04:39:56.547Z,1.70
2022-09-26T04:42:25.108Z,1.92
2022-09-26T04:44:51.834Z,1.90
2022-09-26T04:47:21.058Z,1.70
2022-09-26T04:49:47.787Z,1.52
2022-09-26T04:52:17.215Z,1.33
2022-09-26T04:54:44.645Z,1.38
2022-09-26T04:57:17.295Z,1.70
2022-09-26T04:59:46.196Z,1.50
2022-09-26T05:02:13.032Z,1.33
2022-09-26T05:04:39.962Z,1.67
2022-09-26T05:07:06.705Z,1.55
2022-09-26T05:09:36.122Z,1.33
2022-09-26T05:12:03.352Z,1.13
2022-09-26T05:14:30.403Z,1.33
2022-09-26T05:16:57.154Z,1.30
2022-09-26T05:19:24.003Z,1.30
2022-09-26T05:21:50.726Z,1.50
2022-09-26T05:24:37.204Z,1.20
2022-09-26T05:27:06.901Z,1.02
2022-09-26T05:29:34.124Z,1.77
2022-09-26T05:32:01.414Z,1.40
2022-09-26T05:34:28.283Z,1.45
2022-09-26T05:36:56.415Z,1.17
2022-09-26T05:39:42.783Z,1.27
2022-09-26T05:42:09.748Z,1.38
2022-09-26T05:44:36.580Z,1.30
2022-09-26T05:47:04.446Z,1.20
2022-09-26T05:49:35.900Z,1.10
2022-09-26T05:52:03.894Z,1.10
2022-09-26T05:54:31.017Z,1.30
2022-09-26T05:56:57.729Z,1.85
2022-09-26T05:59:36.708Z,1.30
2022-09-26T06:02:06.387Z,1.48
2022-09-26T06:04:33.124Z,1.17
2022-09-26T06:06:59.891Z,1.10
2022-09-26T06:09:26.602Z,1.42
2022-09-26T06:11:53.496Z,1.52
2022-09-26T06:14:21.055Z,1.15
2022-09-26T06:16:56.046Z,1.17
2022-09-26T06:19:23.498Z,1.33
2022-09-26T06:21:56.984Z,1.60
2022-09-26T06:24:23.755Z,1.30
2022-09-26T06:26:50.443Z,1.35
2022-09-26T06:29:17.178Z,1.83
2022-09-26T06:31:46.386Z,1.20
2022-09-26T06:34:14.573Z,1.30
2022-09-26T06:36:41.297Z,1.40
2022-09-26T06:39:08.052Z,1.30
2022-09-26T06:41:35.180Z,1.55
2022-09-26T06:44:05.209Z,1.15
2022-09-26T06:46:31.982Z,1.40
2022-09-26T06:48:58.717Z,1.58
2022-09-26T06:51:25.399Z,1.10
2022-09-26T06:53:52.092Z,1.35
2022-09-26T06:56:18.804Z,1.50
2022-09-26T06:58:49.511Z,1.40
2022-09-26T07:01:16.268Z,1.40
2022-09-26T07:03:45.698Z,1.80
2022-09-26T07:06:13.344Z,1.50
2022-09-26T07:09:03.946Z,1.40
2022-09-26T07:11:38.087Z,1.30
2022-09-26T07:14:17.662Z,1.33
2022-09-26T07:16:45.252Z,1.40
2022-09-26T07:19:12.861Z,1.17
2022-09-26T07:21:40.423Z,1.10
2022-09-26T07:24:08.547Z,1.20
2022-09-26T07:26:35.276Z,1.13
2022-09-26T07:29:02.221Z,1.20
2022-09-26T07:31:29.413Z,1.48
2022-09-26T07:33:56.445Z,1.70
2022-09-26T07:36:23.202Z,1.13
2022-09-26T07:38:50.539Z,1.33
2022-09-26T07:41:18.044Z,1.20
2022-09-26T07:46:49.951Z,1.20
2022-09-26T07:49:35.149Z,1.33
2022-09-26T07:52:02.084Z,1.20
2022-09-26T07:54:28.821Z,2.10
2022-09-26T07:56:55.526Z,1.30
2022-09-26T07:59:22.949Z,1.20
2022-09-26T08:01:52.246Z,1.00
2022-09-26T08:04:19.054Z,1.20
2022-09-26T08:06:46.824Z,1.40
2022-09-26T08:09:13.512Z,1.10
2022-09-26T08:11:41.968Z,1.20
2022-09-26T08:14:08.908Z,1.55
2022-09-26T08:16:39.483Z,1.58
2022-09-26T08:19:07.810Z,1.10
2022-09-26T08:21:35.499Z,1.10
2022-09-26T08:24:02.522Z,1.40
2022-09-26T08:26:29.322Z,1.60
2022-09-26T08:28:56.063Z,1.50
2022-09-26T08:31:23.077Z,1.33
2022-09-26T08:33:49.980Z,1.42
2022-09-26T08:36:16.894Z,1.50
2022-09-26T08:38:43.800Z,1.33
2022-09-26T08:41:48.200Z,1.42
2022-09-26T08:45:23.545Z,1.48
2022-09-26T08:48:03.855Z,1.40
2022-09-26T08:50:49.794Z,1.08
2022-09-26T08:53:24.701Z,1.70
2022-09-26T08:55:55.597Z,1.15
2022-09-26T08:58:40.852Z,1.42
2022-09-26T09:01:21.173Z,1.40
2022-09-26T09:04:03.644Z,1.52
2022-09-26T09:06:31.105Z,1.40
2022-09-26T09:08:58.354Z,1.50
2022-09-26T09:12:08.437Z,1.30
2022-09-26T09:14:41.021Z,1.10
2022-09-26T09:17:28.856Z,2.00
2022-09-26T09:20:31.984Z,1.40
2022-09-26T09:23:17.305Z,1.38
2022-09-26T09:29:56.605Z,1.60
2022-09-26T09:32:42.046Z,1.67
2022-09-26T09:35:20.092Z,1.50
2022-09-26T09:37:51.974Z,1.35
2022-09-26T09:40:39.944Z,1.27
2022-09-26T09:43:16.475Z,1.10
2022-09-26T09:45:51.674Z,1.50
2022-09-26T09:48:18.791Z,1.42
2022-09-26T09:51:10.481Z,1.23
2022-09-26T09:54:07.528Z,1.73
2022-09-26T09:57:17.609Z,1.40
2022-09-26T10:00:22.430Z,1.75
2022-09-26T10:03:24.988Z,1.50
2022-09-26T10:06:01.152Z,1.40
2022-09-26T10:08:32.362Z,1.48
2022-09-26T10:11:28.177Z,1.48
2022-09-26T10:13:58.064Z,1.50
2022-09-26T10:16:25.048Z,2.97
2022-09-26T10:19:06.132Z,1.60
2022-09-26T10:21:40.752Z,1.50
2022-09-26T10:24:40.856Z,1.67
2022-09-26T10:27:46.689Z,1.98
2022-09-26T10:30:19.363Z,1.77
2022-09-26T10:32:56.543Z,1.60
2022-09-26T10:35:29.696Z,1.40
2022-09-26T10:38:07.688Z,1.80
2022-09-26T10:40:48.348Z,1.40
2022-09-26T10:43:37.776Z,1.85
2022-09-26T10:46:15.978Z,1.33
2022-09-26T10:48:49.585Z,1.63
2022-09-26T10:51:37.519Z,1.50
2022-09-26T10:54:17.030Z,1.50
2022-09-26T10:56:51.908Z,1.67
2022-09-26T10:59:27.217Z,1.60
2022-09-26T11:01:59.112Z,1.27
2022-09-26T11:04:52.549Z,1.40
2022-09-26T11:07:25.836Z,1.75
2022-09-26T11:10:06.484Z,1.33
2022-09-26T11:12:41.740Z,1.25
2022-09-26T11:15:13.644Z,1.50
2022-09-26T11:17:48.549Z,1.98
2022-09-26T11:20:35.170Z,1.50
2022-09-26T11:23:32.261Z,1.40
2022-09-26T11:26:33.488Z,1.33
2022-09-26T11:29:35.211Z,1.20
2022-09-26T11:32:02.382Z,1.15
2022-09-26T11:34:33.375Z,1.70
2022-09-26T11:37:26.780Z,1.65
2022-09-26T11:40:10.051Z,1.65
2022-09-26T11:43:17.148Z,1.55
2022-09-26T11:46:15.120Z,1.60
2022-09-26T11:49:28.862Z,1.30
2022-09-26T11:52:37.099Z,1.40
2022-09-26T11:55:15.030Z,1.38
2022-09-26T11:58:21.548Z,1.30
2022-09-26T12:01:43.202Z,1.52
2022-09-26T12:04:37.238Z,1.50
2022-09-26T12:07:33.002Z,1.80
2022-09-26T12:10:26.974Z,1.70
2022-09-26T12:13:45.170Z,1.83
2022-09-26T12:16:21.962Z,1.90
2022-09-26T12:19:16.824Z,1.60
2022-09-26T12:22:29.562Z,1.67
2022-09-26T12:25:22.078Z,1.45
2022-09-26T12:28:20.229Z,1.50
2022-09-26T12:31:13.174Z,1.40
2022-09-26T12:34:17.165Z,1.70
2022-09-26T12:37:19.161Z,1.60
2022-09-26T12:40:23.248Z,1.60
2022-09-26T12:43:54.421Z,1.50
2022-09-26T12:46:48.854Z,1.30
2022-09-26T12:50:00.513Z,1.20
2022-09-26T12:53:10.055Z,1.50
2022-09-26T12:55:57.888Z,1.70
2022-09-26T12:59:12.128Z,1.58
2022-09-26T13:01:46.762Z,1.30
2022-09-26T13:04:54.398Z,1.40
2022-09-26T13:07:38.902Z,1.10
2022-09-26T13:10:31.696Z,1.00
2022-09-26T13:13:34.294Z,1.10
2022-09-26T13:16:46.604Z,1.50
2022-09-26T13:19:22.794Z,1.20
2022-09-26T13:22:09.719Z,0.70
2022-09-26T13:25:19.659Z,0.80
2022-09-26T13:28:15.160Z,1.00
2022-09-26T13:30:50.752Z,0.90
2022-09-26T13:33:29.603Z,0.70
2022-09-26T13:36:01.296Z,0.63
2022-09-26T13:39:01.449Z,0.80
2022-09-26T13:42:12.453Z,0.60
2022-09-26T13:45:22.650Z,1.10
2022-09-26T13:48:13.692Z,0.88
2022-09-26T13:51:18.339Z,0.70
2022-09-26T13:54:02.849Z,0.70
2022-09-26T13:56:34.770Z,0.95
2022-09-26T13:59:12.008Z,0.90
2022-09-26T14:02:15.755Z,0.80
2022-09-26T14:04:45.505Z,0.90
2022-09-26T14:07:30.373Z,1.10
2022-09-26T14:10:32.275Z,0.77
2022-09-26T14:13:21.702Z,0.90
2022-09-26T14:15:48.441Z,0.88
2022-09-26T14:19:04.120Z,1.02
2022-09-26T14:21:37.909Z,0.90
2022-09-26T14:24:31.429Z,1.08
2022-09-26T14:27:05.517Z,1.20
2022-09-26T14:29:32.421Z,1.40
2022-09-26T14:32:12.398Z,1.95
2022-09-26T14:35:05.287Z,1.10
2022-09-26T14:37:40.839Z,1.65
2022-09-26T14:40:10.535Z,1.30
2022-09-26T14:42:43.251Z,1.27
2022-09-26T14:45:45.865Z,1.17
2022-09-26T14:48:36.054Z,0.80
2022-09-26T14:51:12.599Z,0.80
2022-09-26T14:54:22.756Z,0.90
2022-09-26T14:57:20.741Z,0.88
2022-09-26T14:59:50.760Z,0.90
2022-09-26T15:02:25.954Z,0.70
2022-09-26T15:05:12.442Z,0.70
2022-09-26T15:07:55.363Z,1.40
2022-09-26T15:10:34.535Z,3.25
2022-09-26T15:13:32.840Z,1.48
2022-09-26T15:16:29.182Z,2.90
2022-09-26T15:19:06.028Z,1.35
2022-09-26T15:21:45.459Z,1.08
2022-09-26T15:24:37.416Z,1.00
2022-09-26T15:27:27.144Z,1.05
2022-09-26T15:30:06.629Z,1.05
2022-09-26T15:32:38.298Z,1.30
2022-09-26T15:35:05.820Z,1.52
2022-09-26T15:37:36.126Z,1.30
2022-09-26T15:40:30.812Z,1.40
2022-09-26T15:43:20.476Z,1.27
2022-09-26T15:45:49.187Z,2.42
2022-09-26T15:48:25.596Z,5.45
2022-09-26T15:51:17.275Z,2.28
2022-09-26T15:53:55.690Z,1.90
2022-09-26T15:56:39.297Z,1.75
2022-09-26T15:59:30.152Z,2.03
2022-09-26T16:01:57.411Z,1.45
2022-09-26T16:04:29.104Z,1.98
2022-09-26T16:07:03.344Z,1.67
2022-09-26T16:09:38.660Z,1.98
2022-09-26T16:12:19.204Z,2.40
2022-09-26T16:14:58.306Z,2.15
2022-09-26T16:17:40.292Z,1.83
2022-09-26T16:20:10.048Z,1.80
2022-09-26T16:22:36.835Z,1.58
2022-09-26T16:25:19.047Z,2.00
2022-09-26T16:27:46.550Z,1.75
2022-09-26T16:30:49.444Z,2.30
2022-09-26T16:33:16.166Z,1.77
2022-09-26T16:35:48.126Z,2.67
2022-09-26T16:38:30.722Z,2.00
2022-09-26T16:41:48.866Z,1.65
2022-09-26T16:44:31.832Z,2.00
2022-09-26T16:47:04.825Z,1.73
2022-09-26T16:49:48.023Z,1.88
2022-09-26T16:52:32.819Z,1.90
2022-09-26T16:55:02.436Z,1.70
2022-09-26T16:57:44.521Z,2.20
2022-09-26T17:00:42.586Z,1.80
2022-09-26T17:03:36.493Z,1.85
2022-09-26T17:06:03.616Z,1.85
2022-09-26T17:08:30.377Z,1.73
2022-09-26T17:11:04.205Z,1.58
2022-09-26T17:13:51.852Z,3.05
2022-09-26T17:16:18.862Z,2.10
2022-09-26T17:18:45.679Z,1.60
2022-09-26T17:21:12.541Z,1.70
2022-09-26T17:23:41.505Z,2.08
2022-09-26T17:26:19.643Z,1.80
2022-09-26T17:28:46.707Z,1.50
2022-09-26T17:31:20.937Z,2.50
2022-09-26T17:33:52.975Z,2.20
2022-09-26T17:36:27.893Z,2.90
2022-09-26T17:39:02.522Z,2.90
2022-09-26T17:41:32.501Z,1.95
2022-09-26T17:44:03.234Z,2.05
2022-09-26T17:46:30.447Z,1.90
2022-09-26T17:48:59.173Z,2.00
2022-09-26T17:51:25.923Z,1.70
2022-09-26T17:53:52.900Z,2.00
2022-09-26T17:56:20.470Z,2.10
2022-09-26T17:58:49.123Z,2.33
2022-09-26T18:01:34.508Z,1.50
2022-09-26T18:04:07.041Z,2.58
2022-09-26T18:06:34.157Z,2.03
2022-09-26T18:09:12.523Z,1.80
2022-09-26T18:11:41.535Z,2.63
2022-09-26T18:14:19.606Z,2.60
2022-09-26T18:16:46.660Z,1.98
2022-09-26T18:19:17.564Z,1.67
2022-09-26T18:21:48.880Z,1.65
2022-09-26T18:24:19.917Z,1.38
2022-09-26T18:26:50.579Z,1.75
2022-09-26T18:29:29.974Z,1.80
2022-09-26T18:31:58.132Z,13.57
2022-09-26T18:34:28.351Z,8.25
2022-09-26T18:37:00.053Z,13.90
2022-09-26T18:39:31.605Z,10.18
2022-09-26T18:42:09.008Z,7.70
2022-09-26T18:44:37.025Z,5.10
2022-09-26T18:47:10.645Z,2.88
2022-09-26T18:49:38.052Z,1.90
2022-09-26T18:52:06.507Z,4.78
2022-09-26T18:54:36.400Z,4.60
2022-09-26T18:57:21.509Z,3.63
2022-09-26T18:59:48.185Z,3.03
2022-09-26T19:02:26.155Z,2.60
2022-09-26T19:04:58.082Z,1.88
2022-09-26T19:07:25.550Z,1.65
2022-09-26T19:09:58.742Z,1.30
2022-09-26T19:12:28.547Z,2.10
2022-09-26T19:14:55.253Z,1.38
2022-09-26T19:17:22.429Z,1.15
2022-09-26T19:19:49.160Z,1.10
2022-09-26T19:22:17.299Z,1.38
2022-09-26T19:24:49.860Z,1.20
2022-09-26T19:27:29.892Z,1.42
2022-09-26T19:30:17.253Z,1.55
2022-09-26T19:32:50.142Z,1.20
2022-09-26T19:35:44.146Z,1.00
2022-09-26T19:38:26.569Z,1.55
2022-09-26T19:40:53.888Z,4.90
2022-09-26T19:43:22.014Z,1.95
2022-09-26T19:45:53.288Z,1.60
2022-09-26T19:48:22.712Z,4.28
2022-09-26T19:50:52.399Z,1.70
2022-09-26T19:53:23.729Z,1.23
2022-09-26T19:55:50.978Z,0.70
2022-09-26T19:58:22.244Z,0.60
2022-09-26T20:00:52.521Z,0.93
2022-09-26T20:03:26.731Z,0.63
2022-09-26T20:05:53.662Z,0.90
2022-09-26T20:08:24.997Z,0.73
2022-09-26T20:10:54.359Z,0.75
2022-09-26T20:13:21.752Z,1.45
2022-09-26T20:15:49.072Z,0.80
2022-09-26T20:18:23.017Z,1.80
2022-09-26T20:20:56.964Z,0.68
2022-09-26T20:23:26.672Z,0.70
2022-09-26T20:25:54.931Z,0.90
2022-09-26T20:28:21.929Z,1.50
2022-09-26T20:30:51.395Z,1.13
2022-09-26T20:33:24.407Z,0.80
2022-09-26T20:36:04.704Z,0.75
2022-09-26T20:38:47.815Z,1.08
2022-09-26T20:41:31.895Z,1.30
2022-09-26T20:44:05.877Z,0.90
2022-09-26T20:46:38.712Z,0.70
2022-09-26T20:49:14.778Z,0.73
2022-09-26T20:51:42.988Z,0.50
2022-09-26T20:54:25.968Z,0.73
2022-09-26T20:56:55.072Z,1.00
2022-09-26T20:59:24.719Z,0.70
2022-09-26T21:01:54.869Z,0.90
2022-09-26T21:04:35.134Z,0.90
2022-09-26T21:07:01.841Z,0.82
2022-09-26T21:09:28.523Z,1.42
2022-09-26T21:11:55.283Z,0.70
2022-09-26T21:14:22.034Z,4.35
2022-09-26T21:17:17.250Z,0.90
2022-09-26T21:19:44.395Z,1.00
2022-09-26T21:22:12.664Z,0.80
2022-09-26T21:24:45.276Z,0.80
2022-09-26T21:27:13.179Z,0.90
2022-09-26T21:29:43.800Z,0.80
2022-09-26T21:32:21.332Z,0.70
2022-09-26T21:35:03.053Z,0.82
2022-09-26T21:37:30.993Z,0.90
2022-09-26T21:39:57.935Z,0.75
2022-09-26T21:42:26.093Z,1.27
2022-09-26T21:45:00.558Z,0.85
2022-09-26T21:47:28.084Z,0.75
2022-09-26T21:49:54.841Z,1.08
2022-09-26T21:52:41.954Z,0.90
2022-09-26T21:55:25.360Z,1.73
2022-09-26T21:57:54.554Z,1.75
2022-09-26T22:00:21.751Z,0.90
2022-09-26T22:02:48.781Z,0.60
2022-09-26T22:05:16.689Z,0.63
2022-09-26T22:07:43.844Z,1.17
2022-09-26T22:10:10.635Z,0.70
2022-09-26T22:12:37.310Z,0.80
2022-09-26T22:15:04.931Z,0.65
2022-09-26T22:17:31.784Z,0.88
2022-09-26T22:19:58.532Z,0.50
2022-09-26T22:22:25.885Z,0.60
2022-09-26T22:24:53.919Z,0.65
2022-09-26T22:27:21.606Z,0.70
2022-09-26T22:29:48.381Z,1.08
2022-09-26T22:32:15.083Z,0.70
2022-09-26T22:34:42.006Z,0.60
2022-09-26T22:37:08.748Z,0.60
2022-09-26T22:39:35.429Z,0.90
2022-09-26T22:42:02.105Z,0.57
2022-09-26T22:44:28.825Z,0.55
2022-09-26T22:46:55.497Z,0.70
2022-09-26T22:49:22.883Z,0.98
2022-09-26T22:51:49.662Z,0.60
2022-09-26T22:54:18.526Z,0.60
2022-09-26T22:56:45.545Z,0.93
2022-09-26T22:59:12.715Z,0.55
2022-09-26T23:01:39.513Z,0.60
2022-09-26T23:04:06.290Z,0.70
2022-09-26T23:06:33.122Z,0.75
2022-09-26T23:08:59.820Z,0.40
2022-09-26T23:11:27.838Z,0.68
2022-09-26T23:13:54.577Z,0.40
2022-09-26T23:16:24.489Z,0.70
2022-09-26T23:18:52.171Z,0.57
2022-09-26T23:21:22.764Z,0.57
2022-09-26T23:24:06.129Z,0.47
2022-09-26T23:26:33.008Z,0.40
2022-09-26T23:29:00.326Z,0.30
2022-09-26T23:31:28.777Z,0.60
2022-09-26T23:33:57.241Z,0.55
2022-09-26T23:36:25.252Z,0.60
2022-09-26T23:38:54.498Z,0.30
2022-09-26T23:41:22.697Z,0.50
2022-09-26T23:43:49.594Z,0.82
2022-09-26T23:46:16.548Z,0.73
2022-09-26T23:48:43.676Z,0.40
2022-09-26T23:51:10.444Z,1.08
2022-09-26T23:53:37.552Z,0.40
2022-09-26T23:56:10.749Z,0.52
2022-09-26T23:58:38.346Z,0.40
